sensor_id;sensor_type;location;lat;lon;timestamp;pressure;altitude;pressure_sealevel;temperature;humidity
10720;BME280;5411;58.386;15.560;2022-11-11T00:01:20;100086.94;;;13.13;100.00
10720;BME280;5411;58.386;15.560;2022-11-11T00:03:53;100085.31;;;13.12;100.00
10720;BME280;5411;58.386;15.560;2022-11-11T00:06:22;100097.09;;;13.11;100.00
10720;BME280;5411;58.386;15.560;2022-11-11T00:08:50;100093.81;;;13.09;100.00
10720;BME280;5411;58.386;15.560;2022-11-11T00:11:24;100105.16;;;13.11;100.00
10720;BME280;5411;58.386;15.560;2022-11-11T00:13:53;100107.84;;;13.11;100.00
10720;BME280;5411;58.386;15.560;2022-11-11T00:16:21;100111.13;;;13.13;100.00
10720;BME280;5411;58.386;15.560;2022-11-11T00:18:51;100119.81;;;13.15;100.00
10720;BME280;5411;58.386;15.560;2022-11-11T00:21:36;100114.22;;;13.16;100.00
10720;BME280;5411;58.386;15.560;2022-11-11T00:24:24;100114.56;;;13.20;100.00
10720;BME280;5411;58.386;15.560;2022-11-11T00:27:10;100094.50;;;13.23;100.00
10720;BME280;5411;58.386;15.560;2022-11-11T00:29:39;100094.88;;;13.26;100.00
10720;BME280;5411;58.386;15.560;2022-11-11T00:32:08;100083.06;;;13.27;100.00
10720;BME280;5411;58.386;15.560;2022-11-11T00:34:58;100100.59;;;13.30;100.00
10720;BME280;5411;58.386;15.560;2022-11-11T00:37:45;100104.94;;;13.31;100.00
10720;BME280;5411;58.386;15.560;2022-11-11T00:40:15;100102.59;;;13.34;100.00
10720;BME280;5411;58.386;15.560;2022-11-11T00:42:43;100092.44;;;13.36;100.00
10720;BME280;5411;58.386;15.560;2022-11-11T00:45:12;100092.22;;;13.38;100.00
10720;BME280;5411;58.386;15.560;2022-11-11T00:47:40;100094.69;;;13.39;100.00
10720;BME280;5411;58.386;15.560;2022-11-11T00:50:28;100098.56;;;13.43;100.00
10720;BME280;5411;58.386;15.560;2022-11-11T00:53:15;100081.97;;;13.46;100.00
10720;BME280;5411;58.386;15.560;2022-11-11T00:55:51;100095.19;;;13.48;100.00
10720;BME280;5411;58.386;15.560;2022-11-11T00:58:20;100100.31;;;13.49;100.00
10720;BME280;5411;58.386;15.560;2022-11-11T01:00:49;100096.59;;;13.50;100.00
10720;BME280;5411;58.386;15.560;2022-11-11T01:03:20;100105.84;;;13.54;100.00
10720;BME280;5411;58.386;15.560;2022-11-11T01:05:49;100086.59;;;13.58;100.00
10720;BME280;5411;58.386;15.560;2022-11-11T01:08:17;100085.88;;;13.62;100.00
10720;BME280;5411;58.386;15.560;2022-11-11T01:10:46;100089.38;;;13.63;100.00
10720;BME280;5411;58.386;15.560;2022-11-11T01:13:17;100109.41;;;13.67;100.00
10720;BME280;5411;58.386;15.560;2022-11-11T01:15:48;100102.75;;;13.69;100.00
10720;BME280;5411;58.386;15.560;2022-11-11T01:18:19;100092.31;;;13.73;100.00
10720;BME280;5411;58.386;15.560;2022-11-11T01:20:58;100084.63;;;13.76;100.00
10720;BME280;5411;58.386;15.560;2022-11-11T01:23:27;100086.88;;;13.79;100.00
10720;BME280;5411;58.386;15.560;2022-11-11T01:26:00;100090.16;;;13.81;100.00
10720;BME280;5411;58.386;15.560;2022-11-11T01:28:29;100095.28;;;13.83;100.00
10720;BME280;5411;58.386;15.560;2022-11-11T01:31:01;100091.06;;;13.87;100.00
10720;BME280;5411;58.386;15.560;2022-11-11T01:33:31;100086.88;;;13.91;100.00
10720;BME280;5411;58.386;15.560;2022-11-11T01:36:09;100083.75;;;13.94;100.00
10720;BME280;5411;58.386;15.560;2022-11-11T01:38:41;100083.03;;;13.99;100.00
10720;BME280;5411;58.386;15.560;2022-11-11T01:41:12;100107.59;;;14.02;100.00
10720;BME280;5411;58.386;15.560;2022-11-11T01:44:00;100107.97;;;14.06;100.00
10720;BME280;5411;58.386;15.560;2022-11-11T01:46:32;100084.56;;;14.06;100.00
10720;BME280;5411;58.386;15.560;2022-11-11T01:49:13;100094.88;;;14.09;100.00
10720;BME280;5411;58.386;15.560;2022-11-11T01:51:51;100090.09;;;14.11;100.00
10720;BME280;5411;58.386;15.560;2022-11-11T01:54:23;100086.56;;;14.11;100.00
10720;BME280;5411;58.386;15.560;2022-11-11T01:56:57;100083.63;;;14.12;100.00
10720;BME280;5411;58.386;15.560;2022-11-11T01:59:27;100096.03;;;14.13;100.00
10720;BME280;5411;58.386;15.560;2022-11-11T02:01:58;100089.38;;;14.16;100.00
10720;BME280;5411;58.386;15.560;2022-11-11T02:04:27;100080.00;;;14.18;100.00
10720;BME280;5411;58.386;15.560;2022-11-11T02:07:14;100075.22;;;14.20;100.00
10720;BME280;5411;58.386;15.560;2022-11-11T02:09:44;100082.84;;;14.23;100.00
10720;BME280;5411;58.386;15.560;2022-11-11T02:12:16;100069.13;;;14.25;100.00
10720;BME280;5411;58.386;15.560;2022-11-11T02:15:03;100067.84;;;14.27;100.00
10720;BME280;5411;58.386;15.560;2022-11-11T02:17:32;100075.44;;;14.31;100.00
10720;BME280;5411;58.386;15.560;2022-11-11T02:20:02;100059.06;;;14.32;100.00
10720;BME280;5411;58.386;15.560;2022-11-11T02:22:39;100054.28;;;14.34;100.00
10720;BME280;5411;58.386;15.560;2022-11-11T02:25:12;100055.09;;;14.35;100.00
10720;BME280;5411;58.386;15.560;2022-11-11T02:27:44;100053.00;;;14.37;100.00
10720;BME280;5411;58.386;15.560;2022-11-11T02:30:15;100054.38;;;14.39;100.00
10720;BME280;5411;58.386;15.560;2022-11-11T02:32:44;100054.38;;;14.39;100.00
10720;BME280;5411;58.386;15.560;2022-11-11T02:35:16;100068.69;;;14.40;100.00
10720;BME280;5411;58.386;15.560;2022-11-11T02:37:45;100057.91;;;14.40;100.00
10720;BME280;5411;58.386;15.560;2022-11-11T02:40:19;100058.94;;;14.39;100.00
10720;BME280;5411;58.386;15.560;2022-11-11T02:42:48;100052.72;;;14.38;100.00
10720;BME280;5411;58.386;15.560;2022-11-11T02:45:16;100051.69;;;14.39;100.00
10720;BME280;5411;58.386;15.560;2022-11-11T02:47:44;100050.66;;;14.40;100.00
10720;BME280;5411;58.386;15.560;2022-11-11T02:50:13;100050.66;;;14.40;100.00
10720;BME280;5411;58.386;15.560;2022-11-11T02:52:41;100055.22;;;14.40;100.00
10720;BME280;5411;58.386;15.560;2022-11-11T02:55:11;100058.50;;;14.42;100.00
10720;BME280;5411;58.386;15.560;2022-11-11T02:57:41;100043.41;;;14.41;100.00
10720;BME280;5411;58.386;15.560;2022-11-11T03:00:10;100042.78;;;14.39;100.00
10720;BME280;5411;58.386;15.560;2022-11-11T03:02:38;100040.91;;;14.39;100.00
10720;BME280;5411;58.386;15.560;2022-11-11T03:05:07;100045.47;;;14.39;100.00
10720;BME280;5411;58.386;15.560;2022-11-11T03:07:36;100032.75;;;14.34;100.00
10720;BME280;5411;58.386;15.560;2022-11-11T03:10:06;100040.47;;;14.31;100.00
10720;BME280;5411;58.386;15.560;2022-11-11T03:12:38;100025.38;;;14.30;100.00
10720;BME280;5411;58.386;15.560;2022-11-11T03:15:08;100022.91;;;14.28;100.00
10720;BME280;5411;58.386;15.560;2022-11-11T03:17:37;100023.13;;;14.26;100.00
10720;BME280;5411;58.386;15.560;2022-11-11T03:20:09;100005.34;;;14.25;100.00
10720;BME280;5411;58.386;15.560;2022-11-11T03:23:02;100008.88;;;14.26;100.00
10720;BME280;5411;58.386;15.560;2022-11-11T03:25:31;100005.13;;;14.27;100.00
10720;BME280;5411;58.386;15.560;2022-11-11T03:28:05;99990.03;;;14.26;100.00
10720;BME280;5411;58.386;15.560;2022-11-11T03:30:35;99993.31;;;14.28;100.00
10720;BME280;5411;58.386;15.560;2022-11-11T03:33:04;99990.63;;;14.28;100.00
10720;BME280;5411;58.386;15.560;2022-11-11T03:35:32;100000.56;;;14.27;100.00
10720;BME280;5411;58.386;15.560;2022-11-11T03:38:02;100000.56;;;14.27;100.00
10720;BME280;5411;58.386;15.560;2022-11-11T03:40:48;100002.66;;;14.25;100.00
10720;BME280;5411;58.386;15.560;2022-11-11T03:43:17;100007.22;;;14.25;100.00
10720;BME280;5411;58.386;15.560;2022-11-11T03:45:47;99999.97;;;14.25;100.00
10720;BME280;5411;58.386;15.560;2022-11-11T03:48:15;100017.75;;;14.26;100.00
10720;BME280;5411;58.386;15.560;2022-11-11T03:50:45;100016.72;;;14.27;100.00
10720;BME280;5411;58.386;15.560;2022-11-11T03:53:14;100016.47;;;14.29;100.00
10720;BME280;5411;58.386;15.560;2022-11-11T03:55:42;100013.19;;;14.27;100.00
10720;BME280;5411;58.386;15.560;2022-11-11T03:58:11;100024.31;;;14.31;100.00
10720;BME280;5411;58.386;15.560;2022-11-11T04:00:39;100023.03;;;14.33;100.00
10720;BME280;5411;58.386;15.560;2022-11-11T04:03:10;100006.66;;;14.35;100.00
10720;BME280;5411;58.386;15.560;2022-11-11T04:05:57;100020.69;;;14.37;100.00
10720;BME280;5411;58.386;15.560;2022-11-11T04:08:42;100020.94;;;14.35;100.00
10720;BME280;5411;58.386;15.560;2022-11-11T04:11:31;100022.56;;;14.36;100.00
10720;BME280;5411;58.386;15.560;2022-11-11T04:14:02;100018.25;;;14.35;100.00
10720;BME280;5411;58.386;15.560;2022-11-11T04:16:49;100021.75;;;14.36;100.00
10720;BME280;5411;58.386;15.560;2022-11-11T04:19:18;100023.63;;;14.35;100.00
10720;BME280;5411;58.386;15.560;2022-11-11T04:22:03;100035.66;;;14.33;100.00
10720;BME280;5411;58.386;15.560;2022-11-11T04:24:32;100025.97;;;14.32;100.00
10720;BME280;5411;58.386;15.560;2022-11-11T04:27:18;100028.53;;;14.26;100.00
10720;BME280;5411;58.386;15.560;2022-11-11T04:29:46;100033.00;;;14.21;100.00
10720;BME280;5411;58.386;15.560;2022-11-11T04:32:14;100030.75;;;14.18;100.00
10720;BME280;5411;58.386;15.560;2022-11-11T04:35:06;100036.00;;;14.13;100.00
10720;BME280;5411;58.386;15.560;2022-11-11T04:37:43;100041.06;;;14.09;100.00
10720;BME280;5411;58.386;15.560;2022-11-11T04:40:12;100037.19;;;14.05;100.00
10720;BME280;5411;58.386;15.560;2022-11-11T04:42:57;100045.94;;;14.01;100.00
10720;BME280;5411;58.386;15.560;2022-11-11T04:45:25;100041.63;;;14.00;100.00
10720;BME280;5411;58.386;15.560;2022-11-11T04:47:58;100037.56;;;13.97;100.00
10720;BME280;5411;58.386;15.560;2022-11-11T04:50:30;100036.97;;;13.95;100.00
10720;BME280;5411;58.386;15.560;2022-11-11T04:52:58;100050.41;;;13.95;100.00
10720;BME280;5411;58.386;15.560;2022-11-11T04:55:27;100045.03;;;13.95;100.00
10720;BME280;5411;58.386;15.560;2022-11-11T04:58:13;100028.06;;;13.95;100.00
10720;BME280;5411;58.386;15.560;2022-11-11T05:00:41;100030.75;;;13.95;100.00
10720;BME280;5411;58.386;15.560;2022-11-11T05:03:10;100046.66;;;13.96;100.00
10720;BME280;5411;58.386;15.560;2022-11-11T05:05:47;100047.81;;;14.00;100.00
10720;BME280;5411;58.386;15.560;2022-11-11T05:08:35;100053.78;;;14.02;100.00
10720;BME280;5411;58.386;15.560;2022-11-11T05:11:22;100046.91;;;14.06;100.00
10720;BME280;5411;58.386;15.560;2022-11-11T05:13:51;100047.72;;;14.07;100.00
10720;BME280;5411;58.386;15.560;2022-11-11T05:16:40;100054.28;;;14.11;100.00
10720;BME280;5411;58.386;15.560;2022-11-11T05:19:28;100076.63;;;14.11;100.00
10720;BME280;5411;58.386;15.560;2022-11-11T05:22:18;100070.44;;;14.11;100.00
10720;BME280;5411;58.386;15.560;2022-11-11T05:24:51;100069.13;;;14.13;100.00
10720;BME280;5411;58.386;15.560;2022-11-11T05:27:38;100072.41;;;14.15;100.00
10720;BME280;5411;58.386;15.560;2022-11-11T05:30:08;100081.88;;;14.18;100.00
10720;BME280;5411;58.386;15.560;2022-11-11T05:32:36;100073.59;;;14.19;100.00
10720;BME280;5411;58.386;15.560;2022-11-11T05:35:09;100084.13;;;14.21;100.00
10720;BME280;5411;58.386;15.560;2022-11-11T05:37:40;100099.66;;;14.19;100.00
10720;BME280;5411;58.386;15.560;2022-11-11T05:40:09;100108.56;;;14.19;100.00
10720;BME280;5411;58.386;15.560;2022-11-11T05:42:41;100112.66;;;14.22;100.00
10720;BME280;5411;58.386;15.560;2022-11-11T05:45:17;100123.88;;;14.19;100.00
10720;BME280;5411;58.386;15.560;2022-11-11T05:48:08;100106.25;;;14.23;100.00
10720;BME280;5411;58.386;15.560;2022-11-11T05:50:36;100098.97;;;14.23;100.00
10720;BME280;5411;58.386;15.560;2022-11-11T05:53:09;100087.97;;;14.25;100.00
10720;BME280;5411;58.386;15.560;2022-11-11T05:55:37;100089.03;;;14.24;100.00
10720;BME280;5411;58.386;15.560;2022-11-11T05:58:05;100078.28;;;14.24;100.00
10720;BME280;5411;58.386;15.560;2022-11-11T06:00:33;100076.88;;;14.21;100.00
10720;BME280;5411;58.386;15.560;2022-11-11T06:03:01;100068.78;;;14.21;100.00
10720;BME280;5411;58.386;15.560;2022-11-11T06:05:31;100054.97;;;14.18;100.00
10720;BME280;5411;58.386;15.560;2022-11-11T06:07:59;100061.31;;;14.23;100.00
10720;BME280;5411;58.386;15.560;2022-11-11T06:10:31;100058.13;;;14.26;100.00
10720;BME280;5411;58.386;15.560;2022-11-11T06:13:00;100070.31;;;14.29;100.00
10720;BME280;5411;58.386;15.560;2022-11-11T06:15:36;100079.78;;;14.32;100.00
10720;BME280;5411;58.386;15.560;2022-11-11T06:18:06;100075.81;;;14.34;100.00
10720;BME280;5411;58.386;15.560;2022-11-11T06:20:34;100077.44;;;14.35;100.00
10720;BME280;5411;58.386;15.560;2022-11-11T06:23:03;100078.50;;;14.34;100.00
10720;BME280;5411;58.386;15.560;2022-11-11T06:25:33;100078.03;;;14.37;100.00
10720;BME280;5411;58.386;15.560;2022-11-11T06:28:19;100073.47;;;14.38;100.00
10720;BME280;5411;58.386;15.560;2022-11-11T06:30:47;100077.78;;;14.39;100.00
10720;BME280;5411;58.386;15.560;2022-11-11T06:33:17;100094.19;;;14.37;100.00
10720;BME280;5411;58.386;15.560;2022-11-11T06:35:58;100076.63;;;14.35;100.00
10720;BME280;5411;58.386;15.560;2022-11-11T06:38:33;100088.81;;;14.37;100.00
10720;BME280;5411;58.386;15.560;2022-11-11T06:41:02;100112.22;;;14.37;100.00
10720;BME280;5411;58.386;15.560;2022-11-11T06:43:30;100120.28;;;14.37;100.00
10720;BME280;5411;58.386;15.560;2022-11-11T06:45:59;100119.25;;;14.38;100.00
10720;BME280;5411;58.386;15.560;2022-11-11T06:48:28;100110.09;;;14.39;100.00
10720;BME280;5411;58.386;15.560;2022-11-11T06:51:00;100104.50;;;14.40;100.00
10720;BME280;5411;58.386;15.560;2022-11-11T06:53:29;100104.13;;;14.37;100.00
10720;BME280;5411;58.386;15.560;2022-11-11T06:56:00;100115.84;;;14.42;100.00
10720;BME280;5411;58.386;15.560;2022-11-11T06:58:34;100114.81;;;14.43;100.00
10720;BME280;5411;58.386;15.560;2022-11-11T07:01:03;100121.81;;;14.44;100.00
10720;BME280;5411;58.386;15.560;2022-11-11T07:03:32;100119.13;;;14.44;100.00
10720;BME280;5411;58.386;15.560;2022-11-11T07:06:02;100119.97;;;14.45;100.00
10720;BME280;5411;58.386;15.560;2022-11-11T07:08:33;100137.53;;;14.47;100.00
10720;BME280;5411;58.386;15.560;2022-11-11T07:11:01;100144.78;;;14.47;100.00
10720;BME280;5411;58.386;15.560;2022-11-11T07:13:39;100145.59;;;14.47;100.00
10720;BME280;5411;58.386;15.560;2022-11-11T07:16:07;100152.41;;;14.50;100.00
10720;BME280;5411;58.386;15.560;2022-11-11T07:18:37;100137.88;;;14.51;100.00
10720;BME280;5411;58.386;15.560;2022-11-11T07:21:05;100142.19;;;14.52;100.00
10720;BME280;5411;58.386;15.560;2022-11-11T07:23:33;100137.16;;;14.55;100.00
10720;BME280;5411;58.386;15.560;2022-11-11T07:26:01;100151.44;;;14.56;100.00
10720;BME280;5411;58.386;15.560;2022-11-11T07:28:29;100163.63;;;14.58;100.00
10720;BME280;5411;58.386;15.560;2022-11-11T07:30:58;100154.97;;;14.56;100.00
10720;BME280;5411;58.386;15.560;2022-11-11T07:33:26;100165.97;;;14.55;100.00
10720;BME280;5411;58.386;15.560;2022-11-11T07:35:56;100169.69;;;14.54;100.00
10720;BME280;5411;58.386;15.560;2022-11-11T07:38:24;100163.25;;;14.55;100.00
10720;BME280;5411;58.386;15.560;2022-11-11T07:40:52;100165.97;;;14.55;100.00
10720;BME280;5411;58.386;15.560;2022-11-11T07:43:21;100158.47;;;14.57;100.00
10720;BME280;5411;58.386;15.560;2022-11-11T07:45:55;100152.25;;;14.56;100.00
10720;BME280;5411;58.386;15.560;2022-11-11T07:48:24;100161.41;;;14.55;100.00
10720;BME280;5411;58.386;15.560;2022-11-11T07:50:53;100165.13;;;14.54;100.00
10720;BME280;5411;58.386;15.560;2022-11-11T07:53:30;100167.59;;;14.56;100.00
10720;BME280;5411;58.386;15.560;2022-11-11T07:56:01;100173.81;;;14.56;100.00
10720;BME280;5411;58.386;15.560;2022-11-11T07:58:29;100169.47;;;14.55;100.00
10720;BME280;5411;58.386;15.560;2022-11-11T08:00:58;100189.38;;;14.54;100.00
10720;BME280;5411;58.386;15.560;2022-11-11T08:03:35;100180.25;;;14.55;100.00
10720;BME280;5411;58.386;15.560;2022-11-11T08:06:16;100182.13;;;14.55;100.00
10720;BME280;5411;58.386;15.560;2022-11-11T08:08:48;100193.47;;;14.57;100.00
10720;BME280;5411;58.386;15.560;2022-11-11T08:11:17;100196.41;;;14.55;100.00
10720;BME280;5411;58.386;15.560;2022-11-11T08:14:05;100192.88;;;14.55;100.00
10720;BME280;5411;58.386;15.560;2022-11-11T08:16:32;100192.88;;;14.55;100.00
10720;BME280;5411;58.386;15.560;2022-11-11T08:19:02;100185.25;;;14.52;100.00
10720;BME280;5411;58.386;15.560;2022-11-11T08:21:30;100192.66;;;14.56;100.00
10720;BME280;5411;58.386;15.560;2022-11-11T08:23:58;100199.69;;;14.57;100.00
10720;BME280;5411;58.386;15.560;2022-11-11T08:26:47;100209.16;;;14.60;100.00
10720;BME280;5411;58.386;15.560;2022-11-11T08:29:15;100218.06;;;14.60;100.00
10720;BME280;5411;58.386;15.560;2022-11-11T08:31:43;100222.03;;;14.58;100.00
10720;BME280;5411;58.386;15.560;2022-11-11T08:34:13;100221.22;;;14.57;100.00
10720;BME280;5411;58.386;15.560;2022-11-11T08:36:41;100223.47;;;14.60;100.00
10720;BME280;5411;58.386;15.560;2022-11-11T08:39:31;100234.22;;;14.60;100.00
10720;BME280;5411;58.386;15.560;2022-11-11T08:42:02;100224.28;;;14.61;100.00
10720;BME280;5411;58.386;15.560;2022-11-11T08:44:30;100231.06;;;14.64;100.00
10720;BME280;5411;58.386;15.560;2022-11-11T08:46:58;100230.03;;;14.65;100.00
10720;BME280;5411;58.386;15.560;2022-11-11T08:49:27;100230.59;;;14.67;100.00
10720;BME280;5411;58.386;15.560;2022-11-11T08:51:55;100233.19;;;14.61;100.00
10720;BME280;5411;58.386;15.560;2022-11-11T08:54:23;100244.19;;;14.60;100.00
10720;BME280;5411;58.386;15.560;2022-11-11T08:56:51;100233.03;;;14.56;100.00
10720;BME280;5411;58.386;15.560;2022-11-11T08:59:19;100241.13;;;14.56;100.00
10720;BME280;5411;58.386;15.560;2022-11-11T09:01:50;100243.59;;;14.58;100.00
10720;BME280;5411;58.386;15.560;2022-11-11T09:04:18;100242.53;;;14.59;100.00
10720;BME280;5411;58.386;15.560;2022-11-11T09:07:09;100248.50;;;14.61;100.00
10720;BME280;5411;58.386;15.560;2022-11-11T09:09:38;100253.91;;;14.61;100.00
10720;BME280;5411;58.386;15.560;2022-11-11T09:12:06;100250.38;;;14.60;100.00
10720;BME280;5411;58.386;15.560;2022-11-11T09:14:34;100251.81;;;14.63;100.00
10720;BME280;5411;58.386;15.560;2022-11-11T09:17:03;100247.22;;;14.64;100.00
10720;BME280;5411;58.386;15.560;2022-11-11T09:19:31;100259.38;;;14.66;100.00
10720;BME280;5411;58.386;15.560;2022-11-11T09:21:59;100256.69;;;14.66;100.00
10720;BME280;5411;58.386;15.560;2022-11-11T09:24:29;100284.13;;;14.63;100.00
10720;BME280;5411;58.386;15.560;2022-11-11T09:26:57;100269.47;;;14.59;100.00
10720;BME280;5411;58.386;15.560;2022-11-11T09:29:25;100265.34;;;14.56;100.00
10720;BME280;5411;58.386;15.560;2022-11-11T09:31:53;100286.53;;;14.53;100.00
10720;BME280;5411;58.386;15.560;2022-11-11T09:34:21;100274.00;;;14.47;100.00
10720;BME280;5411;58.386;15.560;2022-11-11T09:36:50;100284.41;;;14.43;100.00
10720;BME280;5411;58.386;15.560;2022-11-11T09:39:19;100280.50;;;14.39;100.00
10720;BME280;5411;58.386;15.560;2022-11-11T09:42:09;100289.88;;;14.37;100.00
10720;BME280;5411;58.386;15.560;2022-11-11T09:45:00;100273.34;;;14.33;100.00
10720;BME280;5411;58.386;15.560;2022-11-11T09:47:38;100275.22;;;14.33;100.00
10720;BME280;5411;58.386;15.560;2022-11-11T09:50:10;100284.34;;;14.32;100.00
10720;BME280;5411;58.386;15.560;2022-11-11T09:52:42;100282.69;;;14.31;100.00
10720;BME280;5411;58.386;15.560;2022-11-11T09:55:17;100295.09;;;14.32;100.00
10720;BME280;5411;58.386;15.560;2022-11-11T09:57:52;100288.91;;;14.31;100.00
10720;BME280;5411;58.386;15.560;2022-11-11T10:00:27;100284.56;;;14.30;100.00
10720;BME280;5411;58.386;15.560;2022-11-11T10:03:00;100285.38;;;14.31;100.00
10720;BME280;5411;58.386;15.560;2022-11-11T10:05:35;100278.59;;;14.28;100.00
10720;BME280;5411;58.386;15.560;2022-11-11T10:08:10;100277.16;;;14.25;100.00
10720;BME280;5411;58.386;15.560;2022-11-11T10:10:44;100282.53;;;14.25;100.00
10720;BME280;5411;58.386;15.560;2022-11-11T10:13:19;100276.13;;;14.26;100.00
10720;BME280;5411;58.386;15.560;2022-11-11T10:15:56;100268.03;;;14.26;100.00
10720;BME280;5411;58.386;15.560;2022-11-11T10:18:42;100275.28;;;14.26;100.00
10720;BME280;5411;58.386;15.560;2022-11-11T10:21:14;100273.91;;;14.23;100.00
10720;BME280;5411;58.386;15.560;2022-11-11T10:23:45;100280.56;;;14.21;100.00
10720;BME280;5411;58.386;15.560;2022-11-11T10:26:18;100278.09;;;14.19;100.00
10720;BME280;5411;58.386;15.560;2022-11-11T10:28:49;100285.34;;;14.19;100.00
10720;BME280;5411;58.386;15.560;2022-11-11T10:31:22;100297.16;;;14.18;100.00
10720;BME280;5411;58.386;15.560;2022-11-11T10:33:57;100300.06;;;14.16;100.00
10720;BME280;5411;58.386;15.560;2022-11-11T10:36:28;100308.16;;;14.16;100.00
10720;BME280;5411;58.386;15.560;2022-11-11T10:39:04;100314.34;;;14.17;100.00
10720;BME280;5411;58.386;15.560;2022-11-11T10:41:35;100288.84;;;14.19;100.00
10720;BME280;5411;58.386;15.560;2022-11-11T10:44:20;100295.44;;;14.23;100.00
10720;BME280;5411;58.386;15.560;2022-11-11T10:46:58;100297.88;;;14.25;100.00
10720;BME280;5411;58.386;15.560;2022-11-11T10:49:34;100289.00;;;14.24;100.00
10720;BME280;5411;58.386;15.560;2022-11-11T10:52:09;100287.72;;;14.27;100.00
10720;BME280;5411;58.386;15.560;2022-11-11T10:54:48;100280.22;;;14.29;100.00
10720;BME280;5411;58.386;15.560;2022-11-11T10:57:20;100278.34;;;14.30;100.00
10720;BME280;5411;58.386;15.560;2022-11-11T10:59:57;100285.38;;;14.31;100.00
10720;BME280;5411;58.386;15.560;2022-11-11T11:02:32;100289.94;;;14.30;100.00
10720;BME280;5411;58.386;15.560;2022-11-11T11:05:08;100305.28;;;14.30;100.00
10720;BME280;5411;58.386;15.560;2022-11-11T11:07:42;100305.28;;;14.30;100.00
10720;BME280;5411;58.386;15.560;2022-11-11T11:10:13;100296.97;;;14.31;100.00
10720;BME280;5411;58.386;15.560;2022-11-11T11:12:45;100307.16;;;14.29;100.00
10720;BME280;5411;58.386;15.560;2022-11-11T11:15:19;100312.75;;;14.27;100.00
10720;BME280;5411;58.386;15.560;2022-11-11T11:17:53;100307.38;;;14.27;100.00
10720;BME280;5411;58.386;15.560;2022-11-11T11:20:24;100293.69;;;14.29;100.00
10720;BME280;5411;58.386;15.560;2022-11-11T11:22:54;100283.75;;;14.30;100.00
10720;BME280;5411;58.386;15.560;2022-11-11T11:25:25;100295.09;;;14.32;100.00
10720;BME280;5411;58.386;15.560;2022-11-11T11:28:05;100289.03;;;14.36;100.00
10720;BME280;5411;58.386;15.560;2022-11-11T11:30:35;100302.03;;;14.39;100.00
10720;BME280;5411;58.386;15.560;2022-11-11T11:33:04;100296.22;;;14.42;100.00
10720;BME280;5411;58.386;15.560;2022-11-11T11:35:35;100304.44;;;14.47;100.00
10720;BME280;5411;58.386;15.560;2022-11-11T11:38:05;100297.78;;;14.50;100.00
10720;BME280;5411;58.386;15.560;2022-11-11T11:40:48;100302.91;;;14.51;100.00
10720;BME280;5411;58.386;15.560;2022-11-11T11:43:33;100309.94;;;14.52;100.00
10720;BME280;5411;58.386;15.560;2022-11-11T11:46:18;100312.41;;;14.54;100.00
10720;BME280;5411;58.386;15.560;2022-11-11T11:49:04;100320.47;;;14.54;100.00
10720;BME280;5411;58.386;15.560;2022-11-11T11:51:41;100322.34;;;14.53;100.00
10720;BME280;5411;58.386;15.560;2022-11-11T11:54:23;100316.75;;;14.55;100.00
10720;BME280;5411;58.386;15.560;2022-11-11T11:56:55;100318.59;;;14.54;100.00
10720;BME280;5411;58.386;15.560;2022-11-11T11:59:29;100323.66;;;14.51;100.00
10720;BME280;5411;58.386;15.560;2022-11-11T12:02:13;100331.13;;;14.49;100.00
10720;BME280;5411;58.386;15.560;2022-11-11T12:05:00;100329.28;;;14.49;100.00
10720;BME280;5411;58.386;15.560;2022-11-11T12:07:40;100348.34;;;14.48;100.00
10720;BME280;5411;58.386;15.560;2022-11-11T12:10:23;100344.81;;;14.47;100.00
10720;BME280;5411;58.386;15.560;2022-11-11T12:12:59;100357.47;;;14.47;100.00
10720;BME280;5411;58.386;15.560;2022-11-11T12:15:33;100347.75;;;14.46;100.00
10720;BME280;5411;58.386;15.560;2022-11-11T12:18:21;100344.44;;;14.44;100.00
10720;BME280;5411;58.386;15.560;2022-11-11T12:20:58;100366.22;;;14.42;100.00
10720;BME280;5411;58.386;15.560;2022-11-11T12:23:41;100355.84;;;14.39;100.00
10720;BME280;5411;58.386;15.560;2022-11-11T12:26:19;100343.69;;;14.37;100.00
10720;BME280;5411;58.386;15.560;2022-11-11T12:29:08;100341.00;;;14.37;100.00
10720;BME280;5411;58.386;15.560;2022-11-11T12:31:52;100358.22;;;14.36;100.00
10720;BME280;5411;58.386;15.560;2022-11-11T12:34:42;100356.78;;;14.33;100.00
10720;BME280;5411;58.386;15.560;2022-11-11T12:37:19;100351.84;;;14.30;100.00
10720;BME280;5411;58.386;15.560;2022-11-11T12:40:07;100345.88;;;14.28;100.00
10720;BME280;5411;58.386;15.560;2022-11-11T12:43:01;100340.72;;;14.26;100.00
10720;BME280;5411;58.386;15.560;2022-11-11T12:45:38;100338.03;;;14.26;100.00
10720;BME280;5411;58.386;15.560;2022-11-11T12:48:26;100335.94;;;14.28;100.00
10720;BME280;5411;58.386;15.560;2022-11-11T12:51:01;100336.53;;;14.31;100.00
10720;BME280;5411;58.386;15.560;2022-11-11T12:53:37;100347.88;;;14.33;100.00
10720;BME280;5411;58.386;15.560;2022-11-11T12:56:13;100360.31;;;14.34;100.00
10720;BME280;5411;58.386;15.560;2022-11-11T12:58:51;100356.13;;;14.38;100.00
10720;BME280;5411;58.386;15.560;2022-11-11T13:01:30;100363.38;;;14.37;100.00
10720;BME280;5411;58.386;15.560;2022-11-11T13:04:32;100363.94;;;14.39;100.00
10720;BME280;5411;58.386;15.560;2022-11-11T13:07:31;100369.94;;;14.41;100.00
10720;BME280;5411;58.386;15.560;2022-11-11T13:10:15;100372.66;;;14.41;100.00
10720;BME280;5411;58.386;15.560;2022-11-11T13:12:52;100367.25;;;14.41;100.00
10720;BME280;5411;58.386;15.560;2022-11-11T13:15:25;100370.56;;;14.43;100.00